• Join FlightAware (Why Join?)
  • Login
  • US Flag 
04:55AM EDT


 

Airport Tracker/Info


-or-


 

Live Flight TrackerFlight Track Log ✈ AAL2360 ✈ 20-Apr-2013 ✈ KDFW - KORD

Flight Track Log - Related Links

Times and Time Zones

All times are in EDT time to prevent confusion due to time zone crossing. See the AAL2360 flight status page for this flight to view local times or setup timezone preferences in your user account.

Time Position Orientation Groundspeed Altitude Reporting Facility
EDT Latitude Longitude Course Direction KTS MPH feet Rate Location/Type
04:37PM 32.8833 -97.0333 347° North 167 192 2,000  Level Dallas / Fort Worth TRACON
04:38PM 32.8167 -97.0167 168° South 214 246 4,000 2,520 Climbing Dallas / Fort Worth TRACON
04:39PM 32.7667 -96.9667 140° Southeast 248 285 7,200 1,860 Climbing Dallas / Fort Worth TRACON
04:40PM 32.8534 -96.8000 North  Level FlightAware Approximate
04:41PM 32.9729 -96.8000 North  Level FlightAware Approximate
04:42PM 33.0872 -96.8392 347° North  Level FlightAware Approximate
04:42PM 32.8611 -96.8050 55° Northeast 246 283 10,500  Level Fort Worth Center
04:43PM 33.2034 -96.8723 347° North  Level FlightAware Approximate
04:43PM 32.9553 -96.8267 349° North 278 320 13,700  Level Fort Worth Center
04:44PM 33.0575 -96.8558 347° North 343 395 16,400 2,160 Climbing Fort Worth Center
04:45PM 33.1517 -96.8825 347° North 374 430 18,100 2,040 Climbing Fort Worth Center
04:46PM 33.2728 -96.9142 348° North 397 457 20,500 2,400 Climbing Fort Worth Center
04:47PM 33.3878 -96.9458 347° North 415 478 22,900 1,920 Climbing Fort Worth Center
04:48PM 33.5089 -96.9400 North 420 483 24,400 1,740 Climbing Fort Worth Center
04:49PM 33.6317 -96.8919 18° North 449 517 26,400 1,560 Climbing Fort Worth Center
04:50PM 33.7442 -96.8489 18° North 462 532 27,600 1,500 Climbing Fort Worth Center
04:51PM 33.8692 -96.8006 18° North 467 537 29,500 1,800 Climbing Fort Worth Center
04:52PM 33.9942 -96.7522 18° North 467 537 31,300 1,620 Climbing Fort Worth Center
04:53PM 34.1253 -96.6958 20° North 461 531 32,800 1,260 Climbing Fort Worth Center
04:54PM 34.2461 -96.6497 18° North 456 525 33,900 960 Climbing Fort Worth Center
04:55PM 34.3669 -96.5958 20° North 451 519 34,800 540 Climbing Fort Worth Center
04:56PM 34.4833 -96.5292 25° Northeast 451 519 35,000 60 Climbing Fort Worth Center
04:57PM 34.6039 -96.4650 24° Northeast 456 525 35,000  Level Fort Worth Center
04:58PM 34.7222 -96.4006 24° Northeast 456 525 35,000  Level Fort Worth Center
04:59PM 34.8406 -96.3358 24° Northeast 456 525 35,000  Level Fort Worth Center
05:00PM 34.9589 -96.2711 24° Northeast 456 525 35,000  Level Fort Worth Center
05:01PM 35.0750 -96.2061 25° Northeast 456 525 35,000  Level Fort Worth Center
05:02PM 35.1933 -96.1408 24° Northeast 456 525 35,000  Level Fort Worth Center
05:03PM 35.3033 -96.0806 24° Northeast 462 532 35,000  Level Fort Worth Center
05:05PM 35.5808 -95.9281 24° Northeast 467 537 35,100  Climbing Kansas City Center
05:06PM 35.6981 -95.8589 26° Northeast 467 537 35,000 -60 Descending Kansas City Center
05:07PM 35.8150 -95.7175 44° Northeast 486 559 35,000  Level Kansas City Center
05:08PM 35.9106 -95.5994 45° Northeast 487 560 35,100  Climbing Kansas City Center
05:09PM 36.0058 -95.4825 45° Northeast 486 559 35,100  Level Kansas City Center
05:10PM 36.1083 -95.3556 45° Northeast 488 562 35,100 -60 Level Kansas City Center
05:11PM 36.2033 -95.2378 45° Northeast 486 559 35,000 -120 Descending Kansas City Center
05:12PM 36.2986 -95.1194 45° Northeast 486 559 34,900  Descending Kansas City Center
05:13PM 36.4031 -94.9897 45° Northeast 486 559 35,000 60 Climbing Kansas City Center
05:14PM 36.4981 -94.8703 45° Northeast 487 560 35,100  Climbing Kansas City Center
05:15PM 36.5922 -94.7517 45° Northeast 485 558 35,100 -60 Level Kansas City Center
05:16PM 36.6858 -94.6328 46° Northeast 483 556 35,000 -60 Descending Kansas City Center
05:18PM 36.7803 -94.5136 45° Northeast 483 556 35,000 -60 Level Kansas City Center
05:19PM 36.8767 -94.3997 43° Northeast 479 551 34,900  Descending Kansas City Center
05:20PM 37.0047 -94.2808 37° Northeast 477 549 35,000  Climbing Kansas City Center
05:21PM 37.1094 -94.1772 38° Northeast 479 551 35,000  Level Kansas City Center
05:22PM 37.2000 -94.0878 38° Northeast 479 551 35,100  Climbing Kansas City Center
05:23PM 37.3261 -93.9628 38° Northeast 479 551 35,100  Level Kansas City Center
05:24PM 37.4308 -93.8572 39° Northeast 480 552 35,100  Level Kansas City Center
05:25PM 37.5350 -93.7531 38° Northeast 477 549 35,100 -60 Level Kansas City Center
05:26PM 37.6392 -93.6500 38° Northeast 474 545 35,000 -120 Descending Kansas City Center
05:27PM 37.7414 -93.5458 39° Northeast 472 543 34,900 -60 Descending Kansas City Center
05:28PM 37.8444 -93.4428 38° Northeast 470 541 34,900  Level Kansas City Center
05:29PM 37.9467 -93.3375 39° Northeast 471 542 35,000  Climbing Kansas City Center
05:30PM 38.0494 -93.2339 38° Northeast 470 541 35,000  Level Kansas City Center
05:31PM 38.1528 -93.1289 39° Northeast 470 541 35,000 -60 Level Kansas City Center
05:32PM 38.2778 -93.0003 39° Northeast 474 545 34,900  Descending Kansas City Center
05:33PM 38.3806 -92.8942 39° Northeast 472 543 35,000 60 Climbing Kansas City Center
05:34PM 38.4839 -92.7883 39° Northeast 472 543 35,100  Climbing Kansas City Center
05:35PM 38.5856 -92.6817 39° Northeast 470 541 35,000 -60 Descending Kansas City Center
05:36PM 38.6886 -92.5744 39° Northeast 471 542 35,000  Level Kansas City Center
05:37PM 38.7925 -92.4661 39° Northeast 476 548 35,100  Climbing Kansas City Center
05:38PM 38.8931 -92.3586 40° Northeast 472 543 35,000  Descending Kansas City Center
05:39PM 38.9950 -92.2536 39° Northeast 469 540 35,100  Climbing Kansas City Center
05:40PM 39.0944 -92.1481 39° Northeast 464 534 35,000 -60 Descending Kansas City Center
05:41PM 39.1775 -92.0181 50° Northeast 469 540 35,000  Level Kansas City Center
05:42PM 39.2611 -91.8692 54° Northeast 469 540 35,000 -180 Level Kansas City Center
05:44PM 39.3967 -91.6703 49° Northeast 466 536 34,600 -540 Descending Chicago Center
05:44PM 39.4472 -91.6144 40° Northeast 465 535 34,000 -1,020 Descending Kansas City Center
05:45PM 39.5533 -91.4967 41° Northeast 468 539 33,100 -540 Descending Kansas City Center
05:46PM 39.6500 -91.3850 42° Northeast 470 541 33,000 -60 Descending Kansas City Center
05:47PM 39.7425 -91.2769 42° Northeast 471 542 33,000  Level Kansas City Center
05:48PM 39.8419 -91.1611 42° Northeast 468 539 33,000  Level Kansas City Center
05:49PM 39.9381 -91.0486 42° Northeast 468 539 33,000  Level Kansas City Center
05:50PM 40.0478 -90.9222 41° Northeast 470 541 33,000  Level Kansas City Center
05:51PM 40.1450 -90.8075 42° Northeast 470 541 33,000  Level Kansas City Center
05:52PM 40.2039 -90.7394 41° Northeast 470 541 33,000  Level Chicago Center
05:53PM 40.3006 -90.6253 42° Northeast 468 539 33,000  Level Chicago Center
05:54PM 40.3981 -90.5100 42° Northeast 471 542 33,000  Level Chicago Center
05:55PM 40.4953 -90.3942 42° Northeast 471 542 33,000  Level Chicago Center
05:56PM 40.5925 -90.2769 42° Northeast 471 542 33,000 -60 Level Chicago Center
05:57PM 40.6853 -90.1583 44° Northeast 471 542 32,900 -1,020 Descending Chicago Center
05:58PM 40.7617 -90.0125 55° Northeast 478 550 31,000 -2,340 Descending Chicago Center
05:59PM 40.8589 -89.8444 53° Northeast 478 550 28,200 -2,400 Descending Chicago Center
06:00PM 40.9389 -89.7069 52° Northeast 475 547 26,100 -1,740 Descending Chicago Center
06:01PM 41.0117 -89.5825 52° Northeast 471 542 24,700 -1,860 Descending Chicago Center
06:02PM 41.0878 -89.4511 52° Northeast 453 521 22,300 -2,520 Descending Chicago Center
06:03PM 41.1753 -89.3003 52° Northeast 432 497 19,600 -2,160 Descending Chicago Center
06:04PM 41.2353 -89.1953 53° Northeast 417 480 17,900 -2,220 Descending Chicago Center
06:05PM 41.3131 -89.0578 53° Northeast 393 452 15,100 -2,520 Descending Chicago Center
06:06PM 41.3781 -88.9422 53° Northeast 391 450 12,800 -1,920 Descending Chicago Center
06:07PM 41.4408 -88.8319 53° Northeast 377 434 11,200 -900 Descending Chicago Center
06:08PM 41.5017 -88.7242 53° Northeast 367 422 11,000 -60 Descending Chicago Center
06:09PM 41.5511 -88.6042 61° Northeast 368 423 11,100  Climbing Chicago Center
06:10PM 41.5994 -88.4861 61° Northeast 363 418 11,100 -180 Level Chicago Center
06:11PM 41.6581 -88.3819 53° Northeast 349 402 10,800 -660 Descending Chicago Center
06:13PM 41.7089 -88.2942 52° Northeast 304 350 9,800 -1,140 Descending Chicago Center
06:14PM 41.7567 -88.2133 52° Northeast 281 323 8,500 -1,380 Descending Chicago Center
06:15PM 41.8122 -88.1169 52° Northeast 273 314 7,000 -780 Descending Chicago Center
06:16PM 41.8569 -88.0375 53° Northeast 268 308 7,000  Level Chicago Center
06:16PM 41.8833 -87.9667 63° Northeast 273 314 7,100  Climbing Chicago TRACON
06:17PM 41.8833 -87.8667 90° East 227 261 7,100  Level Chicago TRACON
06:18PM 41.8833 -87.8000 90° East 194 223 7,100 -360 Level Chicago TRACON
06:19PM 41.8833 -87.7167 90° East 190 219 6,400 -1,080 Descending Chicago TRACON
06:20PM 41.9000 -87.6667 66° East 198 228 5,000 -1,200 Descending Chicago TRACON
06:21PM 41.9333 -87.6833 340° North 169 194 4,100 -900 Descending Chicago TRACON
06:22PM 41.9667 -87.7167 323° Northwest 156 180 3,300 -900 Descending Chicago TRACON
06:23PM 41.9667 -87.7833 270° West 163 188 2,300 -720 Descending Chicago TRACON
06:24PM 41.9667 -87.8333 270° West 160 184 1,900 780 Descending Chicago TRACON
06:25PM 41.9333 -87.8500 200° South 210 242 3,900 1,080 Climbing Chicago TRACON
06:26PM 41.8833 -87.8000 143° Southeast 216 249 4,100 60 Climbing Chicago TRACON
06:27PM 41.8500 -87.7500 132° Southeast 211 243 4,100 600 Level Chicago TRACON
06:28PM 41.8000 -87.7333 166° South 214 246 5,400 960 Climbing Chicago TRACON
06:29PM 41.8000 -87.8167 270° West 193 222 6,100 300 Climbing Chicago TRACON
06:30PM 41.8167 -87.8667 294° West 165 190 6,100  Level Chicago TRACON
06:31PM 41.8333 -87.9333 289° West 173 199 6,100 -180 Level Chicago TRACON
06:32PM 41.8314 -87.9619 265° West 174 200 5,900 -120 Descending Chicago Center
06:33PM 41.8322 -88.0264 271° West 174 200 6,000  Climbing Chicago Center
06:34PM 41.8450 -88.0853 286° West 173 199 6,000 -540 Level Chicago Center
06:35PM 41.8697 -88.1533 296° West 172 198 5,000 -1,020 Descending Chicago Center
06:36PM 41.8975 -88.1956 311° West 177 204 4,000 -1,020 Descending Chicago Center